createdAt,value
2022-10-07T00:01:25.210Z,102041.72
2022-10-07T00:03:58.312Z,102037.13
2022-10-07T00:06:29.633Z,102045.28
2022-10-07T00:09:01.633Z,102045.75
2022-10-07T00:11:32.050Z,102040.56
2022-10-07T00:14:10.150Z,102041.28
2022-10-07T00:16:40.837Z,102043.59
2022-10-07T00:19:12.150Z,102050.53
2022-10-07T00:21:45.482Z,102046.50
2022-10-07T00:24:16.181Z,102044.72
2022-10-07T00:26:43.931Z,102041.47
2022-10-07T00:29:17.577Z,102035.50
2022-10-07T00:31:47.360Z,102034.28
2022-10-07T00:34:17.342Z,102033.38
2022-10-07T00:36:51.169Z,102021.59
2022-10-07T00:39:21.006Z,102029.34
2022-10-07T00:41:51.568Z,102021.59
2022-10-07T00:44:38.240Z,102014.66
2022-10-07T00:47:16.484Z,102017.44
2022-10-07T00:50:04.157Z,102016.16
2022-10-07T00:52:46.619Z,102017.81
2022-10-07T00:55:20.662Z,102005.75
2022-10-07T00:57:53.757Z,102003.72
2022-10-07T01:00:24.232Z,102002.44
2022-10-07T01:02:55.301Z,102006.09
2022-10-07T01:05:30.755Z,101997.06
2022-10-07T01:08:02.085Z,101999.97
2022-10-07T01:11:03.016Z,101995.72
2022-10-07T01:13:53.861Z,101995.06
2022-10-07T01:16:35.884Z,101995.59
2022-10-07T01:19:42.142Z,101984.50
2022-10-07T01:22:25.542Z,101992.66
2022-10-07T01:25:04.270Z,101978.31
2022-10-07T01:27:36.348Z,101973.41
2022-10-07T01:30:13.149Z,101973.81
2022-10-07T01:32:49.739Z,101970.97
2022-10-07T01:35:32.805Z,101978.38
2022-10-07T01:38:08.576Z,101970.31
2022-10-07T01:40:49.647Z,101967.00
2022-10-07T01:43:26.859Z,101969.75
2022-10-07T01:45:58.119Z,101971.97
2022-10-07T01:48:36.955Z,101963.00
2022-10-07T01:51:10.597Z,101964.22
2022-10-07T01:53:56.500Z,101961.78
2022-10-07T01:56:42.388Z,101953.28
2022-10-07T01:59:48.882Z,101963.47
2022-10-07T02:02:34.853Z,101946.63
2022-10-07T02:05:29.865Z,101943.69
2022-10-07T02:08:31.615Z,101947.84
2022-10-07T02:11:14.507Z,101947.06
2022-10-07T02:14:02.072Z,101928.81
2022-10-07T02:16:53.344Z,101927.38
2022-10-07T02:19:31.520Z,101936.19
2022-10-07T02:22:02.812Z,101926.69
2022-10-07T02:24:40.380Z,101927.75
2022-10-07T02:27:17.933Z,101928.44
2022-10-07T02:29:54.394Z,101926.97
2022-10-07T02:32:27.027Z,101926.25
2022-10-07T02:35:10.242Z,101922.94
2022-10-07T02:37:48.443Z,101924.22
2022-10-07T02:40:17.433Z,101927.41
2022-10-07T02:43:03.563Z,101925.69
2022-10-07T02:45:43.289Z,101922.03
2022-10-07T02:48:31.219Z,101921.22
2022-10-07T02:51:07.356Z,101919.53
2022-10-07T02:53:40.256Z,101909.78
2022-10-07T02:56:10.532Z,101918.72
2022-10-07T02:58:45.761Z,101915.06
2022-10-07T03:01:26.254Z,101905.75
2022-10-07T03:03:57.205Z,101914.63
2022-10-07T03:06:30.655Z,101907.09
2022-10-07T03:09:05.387Z,101906.75
2022-10-07T03:11:32.804Z,101906.28
2022-10-07T03:14:00.387Z,101905.50
2022-10-07T03:16:39.054Z,101898.63
2022-10-07T03:19:10.936Z,101904.28
2022-10-07T03:21:54.812Z,101897.34
2022-10-07T03:24:26.608Z,101903.28
2022-10-07T03:26:57.086Z,101893.56
2022-10-07T03:29:33.350Z,101906.53
2022-10-07T03:32:04.165Z,101893.56
2022-10-07T03:34:37.589Z,101896.94
2022-10-07T03:37:07.689Z,101900.06
2022-10-07T03:39:42.627Z,101899.25
2022-10-07T03:42:11.004Z,101892.69
2022-10-07T03:44:41.642Z,101887.09
2022-10-07T03:47:12.551Z,101893.97
2022-10-07T03:49:43.468Z,101881.00
2022-10-07T03:52:14.601Z,101879.44
2022-10-07T03:54:48.190Z,101885.47
2022-10-07T03:57:36.974Z,101885.09
2022-10-07T04:00:07.058Z,101887.03
2022-10-07T04:02:45.589Z,101885.47
2022-10-07T04:05:15.910Z,101883.41
2022-10-07T04:07:48.519Z,101880.56
2022-10-07T04:10:21.557Z,101884.22
2022-10-07T04:12:54.272Z,101885.47
2022-10-07T04:15:22.489Z,101888.72
2022-10-07T04:18:00.308Z,101892.75
2022-10-07T04:20:35.213Z,101891.19
2022-10-07T04:23:08.586Z,101886.34
2022-10-07T04:25:46.819Z,101888.31
2022-10-07T04:28:26.365Z,101880.19
2022-10-07T04:31:11.671Z,101882.19
2022-10-07T04:33:47.487Z,101874.91
2022-10-07T04:36:28.616Z,101877.72
2022-10-07T04:39:11.987Z,101877.63
2022-10-07T04:41:48.169Z,101871.16
2022-10-07T04:44:20.786Z,101870.75
2022-10-07T04:46:57.530Z,101880.56
2022-10-07T04:49:27.903Z,101879.66
2022-10-07T04:52:01.001Z,101876.81
2022-10-07T04:54:39.475Z,101876.00
2022-10-07T04:57:16.309Z,101882.47
2022-10-07T04:59:48.281Z,101873.19
2022-10-07T05:02:28.494Z,101879.66
2022-10-07T05:04:56.222Z,101874.00
2022-10-07T05:07:26.806Z,101876.41
2022-10-07T05:09:57.591Z,101879.59
2022-10-07T05:12:28.776Z,101878.31
2022-10-07T05:15:04.797Z,101879.44
2022-10-07T05:17:35.843Z,101880.66
2022-10-07T05:20:09.516Z,101879.38
2022-10-07T05:22:39.709Z,101882.28
2022-10-07T05:25:20.166Z,101883.84
2022-10-07T05:27:55.136Z,101878.50
2022-10-07T05:30:27.708Z,101886.91
2022-10-07T05:32:58.699Z,101886.97
2022-10-07T05:35:34.096Z,101875.13
2022-10-07T05:38:02.502Z,101882.13
2022-10-07T05:40:38.057Z,101886.66
2022-10-07T05:43:05.884Z,101881.47
2022-10-07T05:45:39.639Z,101877.88
2022-10-07T05:48:07.555Z,101880.34
2022-10-07T05:50:34.950Z,101875.34
2022-10-07T05:53:10.166Z,101876.56
2022-10-07T05:55:42.540Z,101876.22
2022-10-07T05:58:14.076Z,101874.19
2022-10-07T06:00:58.050Z,101874.59
2022-10-07T06:03:28.548Z,101870.47
2022-10-07T06:05:59.598Z,101870.84
2022-10-07T06:08:30.842Z,101870.31
2022-10-07T06:11:22.068Z,101869.28
2022-10-07T06:13:55.567Z,101871.41
2022-10-07T06:16:30.091Z,101877.28
2022-10-07T06:19:04.097Z,101876.75
2022-10-07T06:21:37.996Z,101877.81
2022-10-07T06:24:10.844Z,101878.78
2022-10-07T06:26:43.422Z,101880.16
2022-10-07T06:29:17.598Z,101880.69
2022-10-07T06:31:51.630Z,101883.59
2022-10-07T06:34:23.104Z,101885.06
2022-10-07T06:36:54.956Z,101880.97
2022-10-07T06:39:23.574Z,101880.09
2022-10-07T06:41:57.296Z,101878.56
2022-10-07T06:44:59.629Z,101877.19
2022-10-07T06:47:30.978Z,101868.03
2022-10-07T06:50:04.629Z,101873.41
2022-10-07T06:52:39.945Z,101874.28
2022-10-07T06:55:10.585Z,101887.47
2022-10-07T06:57:45.773Z,101874.19
2022-10-07T07:00:22.832Z,101883.28
2022-10-07T07:02:54.779Z,101881.47
2022-10-07T07:05:35.784Z,101886.06
2022-10-07T07:08:04.088Z,101885.31
2022-10-07T07:10:42.234Z,101878.81
2022-10-07T07:13:15.777Z,101884.47
2022-10-07T07:16:00.169Z,101888.09
2022-10-07T07:18:37.650Z,101891.81
2022-10-07T07:21:09.020Z,101892.63
2022-10-07T07:23:39.767Z,101898.25
2022-10-07T07:26:07.611Z,101904.44
2022-10-07T07:28:38.118Z,101892.63
2022-10-07T07:31:14.834Z,101892.09
2022-10-07T07:33:45.829Z,101903.13
2022-10-07T07:36:20.088Z,101899.53
2022-10-07T07:38:57.532Z,101908.34
2022-10-07T07:41:37.526Z,101906.97
2022-10-07T07:44:09.485Z,101903.44
2022-10-07T07:46:43.827Z,101899.72
2022-10-07T07:49:16.985Z,101902.13
2022-10-07T07:51:54.877Z,101892.75
2022-10-07T07:54:32.545Z,101903.63
2022-10-07T07:57:00.369Z,101894.75
2022-10-07T07:59:34.936Z,101890.28
2022-10-07T08:02:05.951Z,101886.69
2022-10-07T08:04:40.450Z,101895.94
2022-10-07T08:07:13.451Z,101892.09
2022-10-07T08:09:47.560Z,101888.03
2022-10-07T08:12:23.818Z,101884.41
2022-10-07T08:14:59.028Z,101889.50
2022-10-07T08:17:35.117Z,101891.31
2022-10-07T08:20:06.338Z,101887.06
2022-10-07T08:22:36.487Z,101884.00
2022-10-07T08:25:07.068Z,101878.22
2022-10-07T08:27:39.474Z,101885.00
2022-10-07T08:30:08.950Z,101882.94
2022-10-07T08:32:43.243Z,101878.06
2022-10-07T08:35:12.318Z,101877.63
2022-10-07T08:37:43.087Z,101886.75
2022-10-07T08:40:17.166Z,101878.50
2022-10-07T08:42:49.129Z,101869.66
2022-10-07T08:45:29.676Z,101869.91
2022-10-07T08:48:03.810Z,101862.63
2022-10-07T08:51:09.347Z,101853.34
2022-10-07T08:53:38.190Z,101847.44
2022-10-07T08:56:27.161Z,101843.47
2022-10-07T08:59:03.585Z,101841.91
2022-10-07T09:01:46.992Z,101843.38
2022-10-07T09:04:33.862Z,101836.06
2022-10-07T09:07:24.017Z,101840.09
2022-10-07T09:10:07.480Z,101840.09
2022-10-07T09:12:41.891Z,101828.31
2022-10-07T09:15:28.767Z,101826.25
2022-10-07T09:18:04.311Z,101830.75
2022-10-07T09:20:45.829Z,101818.28
2022-10-07T09:23:18.835Z,101815.03
2022-10-07T09:25:52.609Z,101814.22
2022-10-07T09:28:29.170Z,101809.81
2022-10-07T09:31:10.997Z,101818.31
2022-10-07T09:33:47.488Z,101815.44
2022-10-07T09:36:25.649Z,101811.38
2022-10-07T09:38:54.053Z,101810.69
2022-10-07T09:41:38.653Z,101803.41
2022-10-07T09:44:25.772Z,101802.59
2022-10-07T09:47:18.901Z,101808.25
2022-10-07T09:49:54.338Z,101799.88
2022-10-07T09:52:31.889Z,101804.53
2022-10-07T09:55:49.703Z,101804.59
2022-10-07T09:58:27.435Z,101797.44
2022-10-07T10:01:00.996Z,101789.84
2022-10-07T10:03:35.125Z,101802.84
2022-10-07T10:06:12.241Z,101795.59
2022-10-07T10:08:45.026Z,101793.53
2022-10-07T10:11:21.745Z,101786.63
2022-10-07T10:13:51.424Z,101788.44
2022-10-07T10:16:26.021Z,101783.28
2022-10-07T10:19:06.639Z,101775.53
2022-10-07T10:21:42.743Z,101775.69
2022-10-07T10:24:16.848Z,101775.28
2022-10-07T10:27:05.617Z,101771.38
2022-10-07T10:30:05.191Z,101763.81
2022-10-07T10:33:01.359Z,101761.75
2022-10-07T10:35:32.208Z,101754.88
2022-10-07T10:38:21.067Z,101755.28
2022-10-07T10:41:30.210Z,101746.09
2022-10-07T10:44:16.452Z,101746.88
2022-10-07T10:46:55.920Z,101738.03
2022-10-07T10:49:41.658Z,101744.47
2022-10-07T10:52:27.306Z,101733.50
2022-10-07T10:55:37.162Z,101733.31
2022-10-07T10:58:48.615Z,101720.72
2022-10-07T11:01:40.934Z,101724.69
2022-10-07T11:04:39.026Z,101711.25
2022-10-07T11:07:30.861Z,101715.66
2022-10-07T11:10:07.200Z,101697.16
2022-10-07T11:12:41.656Z,101695.88
2022-10-07T11:15:46.668Z,101676.75
2022-10-07T11:18:41.293Z,101687.63
2022-10-07T11:21:40.513Z,101680.72
2022-10-07T11:24:33.094Z,101684.41
2022-10-07T11:27:15.153Z,101665.28
2022-10-07T11:29:54.370Z,101670.25
2022-10-07T11:32:38.282Z,101658.09
2022-10-07T11:35:30.083Z,101650.00
2022-10-07T11:38:11.051Z,101651.63
2022-10-07T11:41:10.420Z,101642.28
2022-10-07T11:43:49.333Z,101639.00
2022-10-07T11:46:31.225Z,101630.94
2022-10-07T11:49:16.213Z,101635.75
2022-10-07T11:52:05.588Z,101629.97
2022-10-07T11:54:43.914Z,101620.66
2022-10-07T11:57:24.834Z,101617.03
2022-10-07T12:00:26.717Z,101613.38
2022-10-07T12:02:56.109Z,101606.81
2022-10-07T12:05:41.638Z,101601.84
2022-10-07T12:08:29.370Z,101601.03
2022-10-07T12:11:15.151Z,101599.06
2022-10-07T12:13:53.829Z,101591.84
2022-10-07T12:16:24.992Z,101584.13
2022-10-07T12:19:15.080Z,101570.31
2022-10-07T12:22:03.198Z,101576.84
2022-10-07T12:24:36.073Z,101570.75
2022-10-07T12:27:29.373Z,101569.06
2022-10-07T12:30:03.225Z,101559.03
2022-10-07T12:32:53.266Z,101554.63
2022-10-07T12:35:40.937Z,101547.72
2022-10-07T12:38:23.584Z,101540.47
2022-10-07T12:41:03.791Z,101545.28
2022-10-07T12:43:47.976Z,101536.00
2022-10-07T12:46:20.597Z,101531.53
2022-10-07T12:48:55.567Z,101528.31
2022-10-07T12:51:29.203Z,101529.53
2022-10-07T12:53:57.689Z,101532.84
2022-10-07T12:56:29.282Z,101527.50
2022-10-07T12:59:18.740Z,101525.16
2022-10-07T13:01:52.826Z,101518.66
2022-10-07T13:04:51.931Z,101519.88
2022-10-07T13:08:00.430Z,101514.19
2022-10-07T13:11:00.818Z,101515.81
2022-10-07T13:14:04.084Z,101512.56
2022-10-07T13:17:03.414Z,101511.78
2022-10-07T13:19:49.294Z,101506.16
2022-10-07T13:22:21.503Z,101503.28
2022-10-07T13:24:57.163Z,101507.34
2022-10-07T13:27:32.349Z,101492.75
2022-10-07T13:30:10.445Z,101495.56
2022-10-07T13:32:42.226Z,101497.22
2022-10-07T13:35:38.794Z,101490.72
2022-10-07T13:38:21.301Z,101480.19
2022-10-07T13:41:15.357Z,101478.16
2022-10-07T13:43:46.276Z,101489.50
2022-10-07T13:46:17.556Z,101483.03
2022-10-07T13:48:49.192Z,101478.94
2022-10-07T13:51:25.415Z,101483.03
2022-10-07T13:54:00.974Z,101469.66
2022-10-07T13:56:38.973Z,101470.81
2022-10-07T13:59:08.744Z,101464.75
2022-10-07T14:01:40.753Z,101466.00
2022-10-07T14:04:13.422Z,101465.56
2022-10-07T14:06:56.263Z,101463.53
2022-10-07T14:09:45.952Z,101458.28
2022-10-07T14:12:31.484Z,101447.31
2022-10-07T14:15:24.091Z,101453.41
2022-10-07T14:18:09.073Z,101451.38
2022-10-07T14:20:51.996Z,101448.97
2022-10-07T14:23:34.435Z,101444.94
2022-10-07T14:26:18.116Z,101434.38
2022-10-07T14:28:54.200Z,101435.19
2022-10-07T14:31:46.189Z,101428.34
2022-10-07T14:34:39.502Z,101425.88
2022-10-07T14:37:15.718Z,101424.66
2022-10-07T14:39:51.561Z,101414.16
2022-10-07T14:42:33.597Z,101418.59
2022-10-07T14:45:17.235Z,101414.53
2022-10-07T14:47:57.395Z,101414.16
2022-10-07T14:50:31.215Z,101413.34
2022-10-07T14:53:05.757Z,101407.63
2022-10-07T14:55:41.846Z,101403.97
2022-10-07T14:58:14.122Z,101399.09
2022-10-07T15:00:45.338Z,101404.84
2022-10-07T15:03:18.740Z,101402.00
2022-10-07T15:05:48.995Z,101397.13
2022-10-07T15:08:22.112Z,101394.22
2022-10-07T15:10:59.399Z,101395.09
2022-10-07T15:13:33.224Z,101387.38
2022-10-07T15:16:04.230Z,101390.22
2022-10-07T15:18:32.645Z,101386.56
2022-10-07T15:21:04.988Z,101378.44
2022-10-07T15:23:35.912Z,101386.59
2022-10-07T15:26:06.519Z,101382.13
2022-10-07T15:28:37.626Z,101376.47
2022-10-07T15:31:14.696Z,101375.66
2022-10-07T15:33:52.551Z,101365.91
2022-10-07T15:36:23.488Z,101364.72
2022-10-07T15:38:54.560Z,101366.72
2022-10-07T15:41:33.373Z,101375.66
2022-10-07T15:44:22.748Z,101371.59
2022-10-07T15:46:55.396Z,101371.66
2022-10-07T15:49:26.506Z,101372.56
2022-10-07T15:51:57.025Z,101365.22
2022-10-07T15:54:25.657Z,101377.44
2022-10-07T15:56:56.461Z,101367.59
2022-10-07T15:59:28.382Z,101368.41
2022-10-07T16:01:56.185Z,101365.81
2022-10-07T16:04:24.962Z,101366.56
2022-10-07T16:06:56.060Z,101366.91
2022-10-07T16:09:29.187Z,101362.97
2022-10-07T16:11:59.304Z,101356.88
2022-10-07T16:14:32.850Z,101357.44
2022-10-07T16:17:04.378Z,101357.69
2022-10-07T16:19:34.689Z,101359.88
2022-10-07T16:22:05.794Z,101357.19
2022-10-07T16:24:37.573Z,101351.28
2022-10-07T16:27:06.972Z,101351.41
